Hovedside
METAR-TAF:

METAR-TAF

Lufthavner :

Sankt Michel lufthavn

Sankt Michel, Finland

breddegrad: 61-44N, lengdegrad: 027-18E, høyde over havet: 138 m

Gjeldene værobservasjon

Denne rapporten ble laget for 30 minutter siden, klokken 06:50 UTC
Vind 6 kt fra Sørvest, skiftende mellom Sør og Vest
Temperatur 12°C
Luftfuktighet 58%
Trykk 1026 hPa
Sikt 10 km eller mer
ingen skyer under 1500 m og ingen bygeskyer

METAR: EFMI 230650Z AUTO 23006KT 170V280 CAVOK 12/04 Q1026

Tid: 10:20 (07:20 UTC)


TAF: fraværende

Værobservasjoner og værvarsel for over 4000 flyplasser (METAR- og TAF-rapporter).

Tilgjengelige stasjoner er representert av de røde og gule prikkene på kartet.

Hold musepekeren over prikken for å se navnet på stasjonen.

Klikk så for å se værobservasjoner og -varsler.

For å forandre kartet kan du klikke på den grønne knappen med svart kryss for å zoome inn, på den grønne knappen med strek for å zoome ut, eller på de grønne pilene for å se tilstøtende kart.


METAR-TAF: